N737M WSSL-WIHH
Flight info
| Callsign | N737M |
|---|---|
| Flight time | 1h 28m |
| Altitude | 39000 |
| Route | RECHI DCT SJ B469 BIDAK BIDA1E |
| Aircraft | B738/M-SDE2E3FGHIRWXY/LB1 |
Departure
| Time | 2026-04-18 09:01 |
|---|---|
| Airport | Seletar Airport (WSSL) |
Arrival
| Time | 2026-04-18 10:29 |
|---|---|
| Airport | Halim Perdanakusuma International Airport (WIHH) |
| Time | Latitude | Longitude | Altitude | Speed | Heading |
|---|---|---|---|---|---|
| 2026-04-18 08:40 | 1.41819 | 103.87092 | 47 ft | 0 kts | 303° |
| 2026-04-18 08:56 | 1.41825 | 103.87083 | 51 ft | 5 kts | 302° |
| 2026-04-18 08:57 | 1.41913 | 103.87096 | 49 ft | 14 kts | 33° |
| 2026-04-18 08:57 | 1.42001 | 103.87153 | 52 ft | 16 kts | 33° |
| 2026-04-18 08:57 | 1.42090 | 103.87211 | 50 ft | 15 kts | 33° |
| 2026-04-18 08:58 | 1.42165 | 103.87226 | 49 ft | 9 kts | 307° |
| 2026-04-18 08:58 | 1.42190 | 103.87185 | 48 ft | 7 kts | 304° |
| 2026-04-18 08:58 | 1.42215 | 103.87147 | 54 ft | 7 kts | 296° |
| 2026-04-18 08:58 | 1.42210 | 103.87103 | 49 ft | 7 kts | 232° |
| 2026-04-18 08:59 | 1.42197 | 103.87092 | 54 ft | 0 kts | 214° |
| 2026-04-18 08:59 | 1.42196 | 103.87092 | 51 ft | 0 kts | 214° |
| 2026-04-18 09:00 | 1.42196 | 103.87091 | 55 ft | 1 kts | 214° |
| 2026-04-18 09:00 | 1.42009 | 103.86967 | 53 ft | 72 kts | 212° |
| 2026-04-18 09:00 | 1.41375 | 103.86555 | 49 ft | 142 kts | 212° |
| 2026-04-18 09:01 | 1.40460 | 103.85991 | 486 ft | 161 kts | 214° |
| 2026-04-18 09:01 | 1.39468 | 103.85337 | 1162 ft | 176 kts | 213° |
| 2026-04-18 09:01 | 1.38439 | 103.84647 | 2130 ft | 185 kts | 212° |
| 2026-04-18 09:01 | 1.37260 | 103.83865 | 2671 ft | 221 kts | 212° |
| 2026-04-18 09:02 | 1.35899 | 103.82965 | 3074 ft | 244 kts | 213° |
| 2026-04-18 09:02 | 1.34434 | 103.81998 | 3550 ft | 265 kts | 213° |
| 2026-04-18 09:02 | 1.32853 | 103.80963 | 4282 ft | 278 kts | 213° |
| 2026-04-18 09:02 | 1.31207 | 103.79895 | 5278 ft | 283 kts | 213° |
| 2026-04-18 09:03 | 1.29420 | 103.79094 | 6381 ft | 284 kts | 189° |
| 2026-04-18 09:03 | 1.27454 | 103.79209 | 7359 ft | 288 kts | 161° |
| 2026-04-18 09:03 | 1.25755 | 103.80233 | 8399 ft | 288 kts | 135° |
| 2026-04-18 09:03 | 1.24522 | 103.81823 | 9376 ft | 292 kts | 123° |
| 2026-04-18 09:04 | 1.23413 | 103.83549 | 10276 ft | 298 kts | 122° |
| 2026-04-18 09:04 | 1.22117 | 103.85251 | 10686 ft | 322 kts | 137° |
| 2026-04-18 09:04 | 1.20179 | 103.86543 | 10896 ft | 349 kts | 155° |
| 2026-04-18 09:04 | 1.17889 | 103.87516 | 11414 ft | 362 kts | 158° |
| 2026-04-18 09:05 | 1.15548 | 103.88412 | 12178 ft | 366 kts | 159° |
| 2026-04-18 09:05 | 1.13157 | 103.89316 | 13034 ft | 368 kts | 158° |
| 2026-04-18 09:05 | 1.10762 | 103.90242 | 13795 ft | 372 kts | 158° |
| 2026-04-18 09:05 | 1.08336 | 103.91204 | 14460 ft | 376 kts | 158° |
| 2026-04-18 09:06 | 1.05895 | 103.92187 | 15124 ft | 380 kts | 157° |
| 2026-04-18 09:06 | 1.03437 | 103.93185 | 15808 ft | 383 kts | 157° |
| 2026-04-18 09:06 | 1.00959 | 103.94194 | 16478 ft | 386 kts | 157° |
| 2026-04-18 09:06 | 0.98454 | 103.95213 | 17126 ft | 390 kts | 157° |
| 2026-04-18 09:07 | 0.95930 | 103.96238 | 17763 ft | 394 kts | 157° |
| 2026-04-18 09:07 | 0.93378 | 103.97270 | 18348 ft | 397 kts | 157° |
| 2026-04-18 09:07 | 0.90801 | 103.98311 | 18875 ft | 401 kts | 157° |
| 2026-04-18 09:07 | 0.88207 | 103.99360 | 19408 ft | 404 kts | 158° |
| 2026-04-18 09:08 | 0.85585 | 104.00419 | 19924 ft | 407 kts | 158° |
| 2026-04-18 09:08 | 0.82986 | 104.01471 | 20420 ft | 410 kts | 158° |
| 2026-04-18 09:08 | 0.80324 | 104.02548 | 20920 ft | 414 kts | 158° |
| 2026-04-18 09:08 | 0.77645 | 104.03631 | 21407 ft | 417 kts | 158° |
| 2026-04-18 09:09 | 0.74946 | 104.04725 | 21877 ft | 420 kts | 157° |
| 2026-04-18 09:09 | 0.72235 | 104.05862 | 22355 ft | 423 kts | 156° |
| 2026-04-18 09:09 | 0.69524 | 104.07027 | 22833 ft | 426 kts | 156° |
| 2026-04-18 09:09 | 0.66795 | 104.08209 | 23276 ft | 429 kts | 156° |
| 2026-04-18 09:10 | 0.64044 | 104.09400 | 23651 ft | 432 kts | 156° |
| 2026-04-18 09:10 | 0.61278 | 104.10593 | 23999 ft | 435 kts | 156° |
| 2026-04-18 09:10 | 0.58483 | 104.11796 | 24362 ft | 437 kts | 156° |
| 2026-04-18 09:10 | 0.55678 | 104.13000 | 24720 ft | 440 kts | 156° |
| 2026-04-18 09:11 | 0.52897 | 104.14193 | 25056 ft | 442 kts | 156° |
| 2026-04-18 09:11 | 0.50061 | 104.15409 | 25395 ft | 445 kts | 156° |
| 2026-04-18 09:11 | 0.47203 | 104.16635 | 25741 ft | 447 kts | 156° |
| 2026-04-18 09:11 | 0.44328 | 104.17868 | 26071 ft | 450 kts | 156° |
| 2026-04-18 09:12 | 0.41447 | 104.19104 | 26397 ft | 453 kts | 156° |
| 2026-04-18 09:12 | 0.38545 | 104.20349 | 26713 ft | 455 kts | 156° |
| 2026-04-18 09:12 | 0.35628 | 104.21600 | 27027 ft | 458 kts | 156° |
| 2026-04-18 09:12 | 0.32695 | 104.22858 | 27345 ft | 460 kts | 156° |
| 2026-04-18 09:13 | 0.29746 | 104.24122 | 27667 ft | 462 kts | 156° |
| 2026-04-18 09:13 | 0.26784 | 104.25392 | 27940 ft | 465 kts | 156° |
| 2026-04-18 09:13 | 0.23800 | 104.26672 | 28248 ft | 466 kts | 156° |
| 2026-04-18 09:13 | 0.20811 | 104.27953 | 28519 ft | 469 kts | 156° |
| 2026-04-18 09:14 | 0.17803 | 104.29243 | 28768 ft | 472 kts | 156° |
| 2026-04-18 09:14 | 0.14808 | 104.30528 | 29024 ft | 474 kts | 156° |
| 2026-04-18 09:14 | 0.11771 | 104.31830 | 29321 ft | 476 kts | 156° |
| 2026-04-18 09:14 | 0.08722 | 104.33138 | 29583 ft | 478 kts | 156° |
| 2026-04-18 09:15 | 0.05659 | 104.34452 | 29822 ft | 480 kts | 156° |
| 2026-04-18 09:15 | 0.02582 | 104.35772 | 30035 ft | 482 kts | 156° |
| 2026-04-18 09:15 | -0.00504 | 104.37096 | 30259 ft | 483 kts | 156° |
| 2026-04-18 09:15 | -0.03589 | 104.38419 | 30636 ft | 480 kts | 156° |
| 2026-04-18 09:16 | -0.06650 | 104.39732 | 31036 ft | 478 kts | 156° |
| 2026-04-18 09:16 | -0.09699 | 104.41039 | 31388 ft | 476 kts | 156° |
| 2026-04-18 09:16 | -0.12742 | 104.42344 | 31673 ft | 477 kts | 156° |
| 2026-04-18 09:16 | -0.15794 | 104.43654 | 31971 ft | 477 kts | 156° |
| 2026-04-18 09:17 | -0.18846 | 104.44963 | 32312 ft | 476 kts | 156° |
| 2026-04-18 09:17 | -0.21885 | 104.46266 | 32726 ft | 474 kts | 156° |
| 2026-04-18 09:17 | -0.24915 | 104.47566 | 33100 ft | 473 kts | 156° |
| 2026-04-18 09:17 | -0.27945 | 104.48866 | 33437 ft | 473 kts | 156° |
| 2026-04-18 09:18 | -0.30963 | 104.50161 | 33812 ft | 472 kts | 156° |
| 2026-04-18 09:18 | -0.33945 | 104.51440 | 34177 ft | 470 kts | 156° |
| 2026-04-18 09:18 | -0.36951 | 104.52730 | 34474 ft | 471 kts | 157° |
| 2026-04-18 09:18 | -0.39955 | 104.54018 | 34809 ft | 469 kts | 156° |
| 2026-04-18 09:19 | -0.42945 | 104.55301 | 35231 ft | 466 kts | 156° |
| 2026-04-18 09:19 | -0.45931 | 104.56582 | 35515 ft | 467 kts | 156° |
| 2026-04-18 09:19 | -0.48922 | 104.57863 | 35739 ft | 469 kts | 157° |
| 2026-04-18 09:19 | -0.51934 | 104.59102 | 36056 ft | 468 kts | 158° |
| 2026-04-18 09:20 | -0.54957 | 104.60305 | 36438 ft | 466 kts | 159° |
| 2026-04-18 09:20 | -0.57972 | 104.61490 | 36748 ft | 465 kts | 159° |
| 2026-04-18 09:20 | -0.64057 | 104.63879 | 36840 ft | 472 kts | 159° |
| 2026-04-18 09:21 | -0.70148 | 104.66289 | 36827 ft | 467 kts | 159° |
| 2026-04-18 09:21 | -0.76136 | 104.68671 | 36841 ft | 462 kts | 159° |
| 2026-04-18 09:22 | -0.82071 | 104.71034 | 36840 ft | 461 kts | 159° |
| 2026-04-18 09:22 | -0.88028 | 104.73405 | 36838 ft | 460 kts | 159° |
| 2026-04-18 09:23 | -0.93973 | 104.75772 | 36840 ft | 460 kts | 159° |
| 2026-04-18 09:23 | -0.99920 | 104.78139 | 36839 ft | 460 kts | 159° |
| 2026-04-18 09:24 | -1.05877 | 104.80510 | 36840 ft | 461 kts | 159° |
| 2026-04-18 09:24 | -1.11796 | 104.82866 | 36837 ft | 461 kts | 159° |
| 2026-04-18 09:25 | -1.17763 | 104.85241 | 36837 ft | 461 kts | 159° |
| 2026-04-18 09:25 | -1.23735 | 104.87618 | 36833 ft | 462 kts | 159° |
| 2026-04-18 09:26 | -1.29702 | 104.89994 | 36832 ft | 462 kts | 159° |
| 2026-04-18 09:26 | -1.35676 | 104.92373 | 36836 ft | 462 kts | 159° |
| 2026-04-18 09:27 | -1.41657 | 104.94754 | 36831 ft | 462 kts | 159° |
| 2026-04-18 09:27 | -1.47610 | 104.97124 | 36835 ft | 463 kts | 159° |
| 2026-04-18 09:28 | -1.53597 | 104.99508 | 36837 ft | 463 kts | 159° |
| 2026-04-18 09:28 | -1.59583 | 105.01892 | 36834 ft | 463 kts | 159° |
| 2026-04-18 09:29 | -1.65571 | 105.04277 | 36835 ft | 463 kts | 159° |
| 2026-04-18 09:29 | -1.71566 | 105.06664 | 36838 ft | 463 kts | 159° |
| 2026-04-18 09:30 | -1.77556 | 105.09050 | 36834 ft | 463 kts | 159° |
| 2026-04-18 09:30 | -1.83501 | 105.11418 | 36833 ft | 463 kts | 159° |
| 2026-04-18 09:31 | -1.89485 | 105.13802 | 36840 ft | 462 kts | 159° |
| 2026-04-18 09:31 | -1.95462 | 105.16183 | 36835 ft | 462 kts | 159° |
| 2026-04-18 09:32 | -2.01430 | 105.18561 | 36827 ft | 462 kts | 159° |
| 2026-04-18 09:32 | -2.07401 | 105.20940 | 36829 ft | 461 kts | 159° |
| 2026-04-18 09:33 | -2.13363 | 105.23316 | 36836 ft | 461 kts | 159° |
| 2026-04-18 09:33 | -2.19322 | 105.25691 | 36833 ft | 460 kts | 159° |
| 2026-04-18 09:34 | -2.25274 | 105.28063 | 36844 ft | 460 kts | 159° |
| 2026-04-18 09:34 | -2.31199 | 105.30425 | 36836 ft | 462 kts | 159° |
| 2026-04-18 09:35 | -2.37172 | 105.32806 | 36820 ft | 462 kts | 159° |
| 2026-04-18 09:35 | -2.43147 | 105.35188 | 36825 ft | 462 kts | 159° |
| 2026-04-18 09:36 | -2.48153 | 105.37185 | 36830 ft | 462 kts | 159° |
| 2026-04-18 09:36 | -2.54096 | 105.39568 | 36828 ft | 462 kts | 158° |
| 2026-04-18 09:37 | -2.60022 | 105.42067 | 36828 ft | 462 kts | 158° |
| 2026-04-18 09:37 | -2.66905 | 105.45009 | 36822 ft | 463 kts | 158° |
| 2026-04-18 09:38 | -2.71862 | 105.47119 | 36826 ft | 462 kts | 158° |
| 2026-04-18 09:38 | -2.77792 | 105.49633 | 36826 ft | 462 kts | 158° |
| 2026-04-18 09:39 | -2.83677 | 105.52125 | 36841 ft | 463 kts | 158° |
| 2026-04-18 09:39 | -2.89611 | 105.54638 | 36827 ft | 463 kts | 158° |
| 2026-04-18 09:40 | -2.95537 | 105.57148 | 36825 ft | 463 kts | 158° |
| 2026-04-18 09:40 | -3.01474 | 105.59663 | 36823 ft | 463 kts | 157° |
| 2026-04-18 09:41 | -3.07414 | 105.62180 | 36826 ft | 463 kts | 157° |
| 2026-04-18 09:41 | -3.13341 | 105.64692 | 36840 ft | 462 kts | 158° |
| 2026-04-18 09:42 | -3.19267 | 105.67204 | 36831 ft | 462 kts | 158° |
| 2026-04-18 09:42 | -3.25182 | 105.69711 | 36828 ft | 461 kts | 158° |
| 2026-04-18 09:43 | -3.31082 | 105.72212 | 36830 ft | 460 kts | 157° |
| 2026-04-18 09:43 | -3.36970 | 105.74709 | 36831 ft | 459 kts | 158° |
| 2026-04-18 09:44 | -3.42820 | 105.77190 | 36835 ft | 459 kts | 158° |
| 2026-04-18 09:44 | -3.48692 | 105.79680 | 36838 ft | 458 kts | 158° |
| 2026-04-18 09:45 | -3.54569 | 105.82173 | 36842 ft | 458 kts | 158° |
| 2026-04-18 09:45 | -3.60441 | 105.84664 | 36838 ft | 459 kts | 157° |
| 2026-04-18 09:46 | -3.66318 | 105.87157 | 36841 ft | 459 kts | 158° |
| 2026-04-18 09:46 | -3.72201 | 105.89654 | 36842 ft | 459 kts | 157° |
| 2026-04-18 09:47 | -3.78090 | 105.92153 | 36838 ft | 459 kts | 157° |
| 2026-04-18 09:47 | -3.83931 | 105.94633 | 36841 ft | 459 kts | 157° |
| 2026-04-18 09:48 | -3.89808 | 105.97129 | 36841 ft | 459 kts | 157° |
| 2026-04-18 09:48 | -3.95683 | 105.99624 | 36844 ft | 458 kts | 157° |
| 2026-04-18 09:49 | -4.01547 | 106.02142 | 36842 ft | 458 kts | 153° |
| 2026-04-18 09:49 | -4.04139 | 106.03990 | 36860 ft | 459 kts | 136° |
| 2026-04-18 09:49 | -4.06153 | 106.06464 | 36839 ft | 460 kts | 122° |
| 2026-04-18 09:50 | -4.09361 | 106.12022 | 36853 ft | 461 kts | 120° |
| 2026-04-18 09:50 | -4.12498 | 106.17623 | 36845 ft | 461 kts | 120° |
| 2026-04-18 09:51 | -4.15680 | 106.23209 | 36851 ft | 461 kts | 121° |
| 2026-04-18 09:51 | -4.18869 | 106.28739 | 36852 ft | 461 kts | 121° |
| 2026-04-18 09:52 | -4.22086 | 106.34301 | 36852 ft | 461 kts | 121° |
| 2026-04-18 09:52 | -4.25307 | 106.39870 | 36855 ft | 462 kts | 121° |
| 2026-04-18 09:53 | -4.28530 | 106.45447 | 36854 ft | 462 kts | 121° |
| 2026-04-18 09:53 | -4.31750 | 106.51023 | 36856 ft | 463 kts | 121° |
| 2026-04-18 09:54 | -4.34976 | 106.56609 | 36855 ft | 463 kts | 121° |
| 2026-04-18 09:54 | -4.38205 | 106.62201 | 36854 ft | 463 kts | 121° |
| 2026-04-18 09:55 | -4.41431 | 106.67790 | 36856 ft | 463 kts | 121° |
| 2026-04-18 09:55 | -4.44656 | 106.73379 | 36845 ft | 463 kts | 121° |
| 2026-04-18 09:56 | -4.47883 | 106.78972 | 36859 ft | 463 kts | 121° |
| 2026-04-18 09:56 | -4.51109 | 106.84565 | 36857 ft | 464 kts | 121° |
| 2026-04-18 09:57 | -4.54325 | 106.90142 | 36859 ft | 464 kts | 121° |
| 2026-04-18 09:57 | -4.57552 | 106.95741 | 36860 ft | 464 kts | 121° |
| 2026-04-18 09:58 | -4.60793 | 107.01362 | 36861 ft | 464 kts | 121° |
| 2026-04-18 09:58 | -4.62639 | 107.04005 | 36838 ft | 462 kts | 136° |
| 2026-04-18 09:58 | -4.65159 | 107.05967 | 36870 ft | 459 kts | 151° |
| 2026-04-18 09:59 | -4.68094 | 107.07203 | 36861 ft | 457 kts | 166° |
| 2026-04-18 09:59 | -4.71152 | 107.07891 | 36865 ft | 457 kts | 169° |
| 2026-04-18 10:00 | -4.80523 | 107.09725 | 36857 ft | 457 kts | 169° |
| 2026-04-18 10:00 | -4.86766 | 107.10994 | 36853 ft | 457 kts | 168° |
| 2026-04-18 10:01 | -4.92996 | 107.12299 | 36861 ft | 457 kts | 168° |
| 2026-04-18 10:01 | -4.99240 | 107.13616 | 36412 ft | 462 kts | 168° |
| 2026-04-18 10:01 | -5.02379 | 107.14278 | 35794 ft | 460 kts | 168° |
| 2026-04-18 10:02 | -5.05516 | 107.14939 | 34957 ft | 457 kts | 168° |
| 2026-04-18 10:02 | -5.08634 | 107.15595 | 34202 ft | 457 kts | 168° |
| 2026-04-18 10:02 | -5.11759 | 107.16253 | 33356 ft | 460 kts | 168° |
| 2026-04-18 10:02 | -5.14904 | 107.16915 | 32500 ft | 462 kts | 168° |
| 2026-04-18 10:03 | -5.18013 | 107.17569 | 31673 ft | 464 kts | 167° |
| 2026-04-18 10:03 | -5.21178 | 107.18236 | 30769 ft | 466 kts | 167° |
| 2026-04-18 10:03 | -5.24367 | 107.18907 | 29876 ft | 469 kts | 167° |
| 2026-04-18 10:03 | -5.27544 | 107.19576 | 29116 ft | 464 kts | 167° |
| 2026-04-18 10:04 | -5.30695 | 107.20240 | 28397 ft | 459 kts | 167° |
| 2026-04-18 10:04 | -5.33791 | 107.20918 | 27896 ft | 449 kts | 163° |
| 2026-04-18 10:04 | -5.36614 | 107.22028 | 28010 ft | 426 kts | 153° |
| 2026-04-18 10:05 | -5.41939 | 107.24870 | 28013 ft | 442 kts | 150° |
| 2026-04-18 10:05 | -5.44658 | 107.26387 | 27903 ft | 452 kts | 150° |
| 2026-04-18 10:05 | -5.47418 | 107.27936 | 27863 ft | 456 kts | 149° |
| 2026-04-18 10:05 | -5.50142 | 107.29469 | 27850 ft | 453 kts | 149° |
| 2026-04-18 10:06 | -5.52885 | 107.31014 | 27844 ft | 452 kts | 149° |
| 2026-04-18 10:06 | -5.55527 | 107.32672 | 27613 ft | 440 kts | 143° |
| 2026-04-18 10:06 | -5.57938 | 107.34518 | 27001 ft | 434 kts | 141° |
| 2026-04-18 10:06 | -5.60302 | 107.36409 | 26143 ft | 434 kts | 140° |
| 2026-04-18 10:07 | -5.62650 | 107.38308 | 25270 ft | 434 kts | 140° |
| 2026-04-18 10:07 | -5.64981 | 107.40190 | 24537 ft | 427 kts | 140° |
| 2026-04-18 10:07 | -5.67300 | 107.42051 | 23841 ft | 425 kts | 140° |
| 2026-04-18 10:07 | -5.69601 | 107.43888 | 23244 ft | 420 kts | 140° |
| 2026-04-18 10:08 | -5.71875 | 107.45696 | 22601 ft | 414 kts | 140° |
| 2026-04-18 10:08 | -5.74123 | 107.47482 | 21931 ft | 410 kts | 140° |
| 2026-04-18 10:08 | -5.76348 | 107.49248 | 21248 ft | 406 kts | 140° |
| 2026-04-18 10:08 | -5.78518 | 107.50971 | 20443 ft | 399 kts | 140° |
| 2026-04-18 10:09 | -5.80687 | 107.52694 | 19515 ft | 394 kts | 140° |
| 2026-04-18 10:09 | -5.82829 | 107.54396 | 18622 ft | 390 kts | 139° |
| 2026-04-18 10:09 | -5.84939 | 107.56073 | 17684 ft | 385 kts | 139° |
| 2026-04-18 10:09 | -5.87029 | 107.57734 | 16690 ft | 380 kts | 140° |
| 2026-04-18 10:10 | -5.89097 | 107.59377 | 15723 ft | 377 kts | 140° |
| 2026-04-18 10:10 | -5.91309 | 107.60764 | 14763 ft | 377 kts | 156° |
| 2026-04-18 10:10 | -5.93875 | 107.61288 | 13868 ft | 378 kts | 177° |
| 2026-04-18 10:10 | -5.96480 | 107.60948 | 12890 ft | 378 kts | 195° |
| 2026-04-18 10:11 | -5.98840 | 107.59814 | 12040 ft | 374 kts | 212° |
| 2026-04-18 10:11 | -6.00737 | 107.58097 | 11098 ft | 373 kts | 231° |
| 2026-04-18 10:11 | -6.02177 | 107.55968 | 10508 ft | 360 kts | 236° |
| 2026-04-18 10:11 | -6.03484 | 107.53896 | 10184 ft | 340 kts | 237° |
| 2026-04-18 10:12 | -6.04718 | 107.51958 | 9986 ft | 319 kts | 236° |
| 2026-04-18 10:12 | -6.05884 | 107.50155 | 9945 ft | 296 kts | 236° |
| 2026-04-18 10:12 | -6.06994 | 107.48452 | 9701 ft | 290 kts | 235° |
| 2026-04-18 10:12 | -6.08100 | 107.46762 | 9523 ft | 289 kts | 235° |
| 2026-04-18 10:13 | -6.09203 | 107.45073 | 9368 ft | 289 kts | 236° |
| 2026-04-18 10:13 | -6.10301 | 107.43392 | 9199 ft | 288 kts | 235° |
| 2026-04-18 10:13 | -6.11401 | 107.41705 | 9050 ft | 288 kts | 235° |
| 2026-04-18 10:13 | -6.12501 | 107.40019 | 8897 ft | 288 kts | 235° |
| 2026-04-18 10:14 | -6.13602 | 107.38331 | 8748 ft | 288 kts | 235° |
| 2026-04-18 10:14 | -6.14701 | 107.36646 | 8601 ft | 288 kts | 235° |
| 2026-04-18 10:14 | -6.15785 | 107.34983 | 8444 ft | 288 kts | 235° |
| 2026-04-18 10:14 | -6.16883 | 107.33298 | 8294 ft | 288 kts | 234° |
| 2026-04-18 10:15 | -6.17983 | 107.31612 | 8149 ft | 288 kts | 235° |
| 2026-04-18 10:15 | -6.19079 | 107.29931 | 8001 ft | 287 kts | 236° |
| 2026-04-18 10:15 | -6.20165 | 107.28252 | 7848 ft | 283 kts | 236° |
| 2026-04-18 10:15 | -6.21219 | 107.26586 | 7694 ft | 281 kts | 236° |
| 2026-04-18 10:16 | -6.22265 | 107.24925 | 7553 ft | 280 kts | 236° |
| 2026-04-18 10:16 | -6.23294 | 107.23290 | 7414 ft | 281 kts | 236° |
| 2026-04-18 10:16 | -6.24339 | 107.21633 | 7274 ft | 281 kts | 237° |
| 2026-04-18 10:16 | -6.25385 | 107.19972 | 7125 ft | 281 kts | 236° |
| 2026-04-18 10:17 | -6.26432 | 107.18314 | 6982 ft | 281 kts | 236° |
| 2026-04-18 10:17 | -6.27481 | 107.16651 | 6828 ft | 281 kts | 236° |
| 2026-04-18 10:17 | -6.28526 | 107.14996 | 6691 ft | 280 kts | 236° |
| 2026-04-18 10:17 | -6.29570 | 107.13342 | 6546 ft | 280 kts | 237° |
| 2026-04-18 10:18 | -6.30602 | 107.11677 | 6402 ft | 280 kts | 237° |
| 2026-04-18 10:18 | -6.31624 | 107.10011 | 6247 ft | 280 kts | 237° |
| 2026-04-18 10:18 | -6.32643 | 107.08346 | 6094 ft | 279 kts | 237° |
| 2026-04-18 10:18 | -6.33658 | 107.06689 | 5947 ft | 277 kts | 237° |
| 2026-04-18 10:19 | -6.34666 | 107.05044 | 5804 ft | 276 kts | 237° |
| 2026-04-18 10:19 | -6.35670 | 107.03407 | 5662 ft | 274 kts | 238° |
| 2026-04-18 10:19 | -6.36670 | 107.01776 | 5505 ft | 274 kts | 237° |
| 2026-04-18 10:19 | -6.37665 | 107.00154 | 5374 ft | 272 kts | 238° |
| 2026-04-18 10:20 | -6.38658 | 106.98536 | 5233 ft | 271 kts | 238° |
| 2026-04-18 10:20 | -6.39642 | 106.96933 | 5095 ft | 267 kts | 238° |
| 2026-04-18 10:20 | -6.40522 | 106.95304 | 5011 ft | 264 kts | 251° |
| 2026-04-18 10:20 | -6.40899 | 106.93527 | 4892 ft | 259 kts | 261° |
| 2026-04-18 10:21 | -6.41192 | 106.91763 | 4773 ft | 259 kts | 260° |
| 2026-04-18 10:21 | -6.41499 | 106.89978 | 4677 ft | 259 kts | 260° |
| 2026-04-18 10:21 | -6.41816 | 106.88195 | 4555 ft | 259 kts | 260° |
| 2026-04-18 10:21 | -6.42141 | 106.86416 | 4445 ft | 257 kts | 259° |
| 2026-04-18 10:22 | -6.42464 | 106.84669 | 4324 ft | 250 kts | 259° |
| 2026-04-18 10:22 | -6.42777 | 106.82979 | 4221 ft | 242 kts | 259° |
| 2026-04-18 10:22 | -6.43083 | 106.81332 | 4119 ft | 236 kts | 260° |
| 2026-04-18 10:22 | -6.43103 | 106.79723 | 3996 ft | 227 kts | 289° |
| 2026-04-18 10:23 | -6.42290 | 106.78424 | 3842 ft | 217 kts | 320° |
| 2026-04-18 10:23 | -6.41508 | 106.77821 | 3731 ft | 214 kts | 332° |
| 2026-04-18 10:23 | -6.40157 | 106.77191 | 3535 ft | 212 kts | 338° |
| 2026-04-18 10:23 | -6.38798 | 106.76597 | 3338 ft | 213 kts | 338° |
| 2026-04-18 10:24 | -6.37452 | 106.75999 | 3176 ft | 209 kts | 338° |
| 2026-04-18 10:24 | -6.35742 | 106.75232 | 2897 ft | 195 kts | 338° |
| 2026-04-18 10:24 | -6.34537 | 106.74691 | 2711 ft | 183 kts | 339° |
| 2026-04-18 10:24 | -6.33723 | 106.74501 | 2579 ft | 175 kts | 2° |
| 2026-04-18 10:25 | -6.32640 | 106.74860 | 2401 ft | 163 kts | 36° |
| 2026-04-18 10:25 | -6.31950 | 106.75701 | 2242 ft | 154 kts | 69° |
| 2026-04-18 10:25 | -6.31651 | 106.76690 | 2117 ft | 143 kts | 69° |
| 2026-04-18 10:25 | -6.31284 | 106.77849 | 2228 ft | 199 kts | 70° |
| 2026-04-18 10:26 | -6.30891 | 106.79136 | 1941 ft | 190 kts | 71° |
| 2026-04-18 10:26 | -6.30539 | 106.80317 | 1776 ft | 162 kts | 70° |
| 2026-04-18 10:26 | -6.30240 | 106.81304 | 1615 ft | 134 kts | 66° |
| 2026-04-18 10:26 | -6.29885 | 106.82115 | 1367 ft | 119 kts | 60° |
| 2026-04-18 10:27 | -6.29556 | 106.82824 | 1181 ft | 104 kts | 62° |
| 2026-04-18 10:27 | -6.29257 | 106.83469 | 837 ft | 111 kts | 61° |
| 2026-04-18 10:27 | -6.28910 | 106.84217 | 725 ft | 122 kts | 63° |
| 2026-04-18 10:27 | -6.28534 | 106.85004 | 667 ft | 127 kts | 62° |
| 2026-04-18 10:28 | -6.28159 | 106.85814 | 589 ft | 129 kts | 64° |
| 2026-04-18 10:28 | -6.27796 | 106.86649 | 393 ft | 131 kts | 64° |
| 2026-04-18 10:28 | -6.27417 | 106.87464 | 191 ft | 126 kts | 63° |
| 2026-04-18 10:28 | -6.27058 | 106.88247 | 88 ft | 121 kts | 64° |
| 2026-04-18 10:29 | -6.26739 | 106.88942 | 90 ft | 90 kts | 65° |
| 2026-04-18 10:29 | -6.26539 | 106.89372 | 88 ft | 48 kts | 65° |
| 2026-04-18 10:29 | -6.26429 | 106.89614 | 88 ft | 36 kts | 66° |
| 2026-04-18 10:29 | -6.26328 | 106.89831 | 89 ft | 30 kts | 66° |
| 2026-04-18 10:30 | -6.26244 | 106.90014 | 91 ft | 28 kts | 65° |
| 2026-04-18 10:30 | -6.26179 | 106.90155 | 93 ft | 19 kts | 65° |
| 2026-04-18 10:30 | -6.26089 | 106.90245 | 92 ft | 16 kts | 43° |
| 2026-04-18 10:30 | -6.26097 | 106.90306 | 93 ft | 5 kts | 163° |
| 2026-04-18 10:31 | -6.26120 | 106.90292 | 94 ft | 4 kts | 249° |
| 2026-04-18 10:31 | -6.26137 | 106.90247 | 92 ft | 10 kts | 249° |
| 2026-04-18 10:31 | -6.26174 | 106.90166 | 92 ft | 15 kts | 244° |
| 2026-04-18 10:31 | -6.26227 | 106.90052 | 91 ft | 20 kts | 245° |
| 2026-04-18 10:32 | -6.26285 | 106.89926 | 91 ft | 20 kts | 245° |
| 2026-04-18 10:32 | -6.26342 | 106.89801 | 89 ft | 20 kts | 244° |
| 2026-04-18 10:32 | -6.26398 | 106.89678 | 92 ft | 19 kts | 245° |
| 2026-04-18 10:32 | -6.26455 | 106.89560 | 91 ft | 18 kts | 244° |
| 2026-04-18 10:33 | -6.26507 | 106.89446 | 88 ft | 17 kts | 245° |
| 2026-04-18 10:33 | -6.26556 | 106.89338 | 90 ft | 17 kts | 245° |
| 2026-04-18 10:33 | -6.26576 | 106.89244 | 90 ft | 14 kts | 284° |
| 2026-04-18 10:33 | -6.26545 | 106.89154 | 88 ft | 13 kts | 289° |
| 2026-04-18 10:34 | -6.26513 | 106.89068 | 90 ft | 13 kts | 291° |
| 2026-04-18 10:34 | -6.26496 | 106.89000 | 86 ft | 8 kts | 269° |
| 2026-04-18 10:34 | -6.26516 | 106.88948 | 88 ft | 8 kts | 244° |
| 2026-04-18 10:34 | -6.26543 | 106.88894 | 88 ft | 9 kts | 244° |
| 2026-04-18 10:35 | -6.26566 | 106.88841 | 87 ft | 4 kts | 256° |
| 2026-04-18 10:35 | -6.26551 | 106.88821 | 89 ft | 4 kts | 324° |
| 2026-04-18 10:35 | -6.26534 | 106.88811 | 90 ft | 1 kts | 329° |
| 2026-04-18 10:35 | -6.26533 | 106.88810 | 88 ft | 0 kts | 329° |